createdAt,value
2019-05-30T00:00:25.073Z,15.10
2019-05-30T00:02:54.542Z,15.20
2019-05-30T00:05:24.236Z,15.10
2019-05-30T00:07:54.159Z,15.20
2019-05-30T00:10:23.621Z,15.20
2019-05-30T00:12:54.577Z,15.10
2019-05-30T00:15:24.125Z,15.10
2019-05-30T00:17:54.627Z,15.00
2019-05-30T00:20:24.130Z,14.80
2019-05-30T00:22:54.613Z,14.70
2019-05-30T00:25:24.059Z,14.60
2019-05-30T00:27:53.523Z,14.60
2019-05-30T00:30:24.805Z,14.60
2019-05-30T00:32:54.183Z,14.80
2019-05-30T00:35:23.648Z,14.70
2019-05-30T00:37:53.092Z,14.50
2019-05-30T00:40:22.537Z,14.40
2019-05-30T00:42:51.969Z,14.40
2019-05-30T00:45:21.604Z,14.40
2019-05-30T00:47:51.073Z,14.30
2019-05-30T00:50:20.585Z,14.30
2019-05-30T00:52:50.049Z,14.20
2019-05-30T00:55:19.490Z,14.10
2019-05-30T00:57:48.959Z,14.10
2019-05-30T01:00:18.638Z,14.00
2019-05-30T01:02:48.109Z,14.10
2019-05-30T01:05:17.551Z,14.00
2019-05-30T01:07:47.015Z,13.90
2019-05-30T01:10:16.907Z,13.80
2019-05-30T01:12:48.009Z,13.80
2019-05-30T01:15:17.845Z,13.80
2019-05-30T01:17:47.323Z,13.70
2019-05-30T01:20:18.476Z,13.80
2019-05-30T01:22:47.940Z,13.80
2019-05-30T01:25:17.845Z,13.90
2019-05-30T01:27:47.296Z,14.00
2019-05-30T01:32:52.097Z,13.90
2019-05-30T01:35:21.587Z,13.90
2019-05-30T01:37:51.294Z,13.90
2019-05-30T01:40:20.930Z,13.90
2019-05-30T01:42:50.387Z,14.00
2019-05-30T01:45:19.964Z,14.10
2019-05-30T01:47:49.418Z,14.10
2019-05-30T01:50:20.010Z,14.00
2019-05-30T01:52:49.435Z,14.00
2019-05-30T01:55:19.138Z,14.00
2019-05-30T01:57:48.608Z,14.00
2019-05-30T02:00:21.476Z,14.00
2019-05-30T02:02:50.849Z,13.90
2019-05-30T02:05:20.720Z,13.90
2019-05-30T02:07:50.194Z,13.90
2019-05-30T02:10:20.178Z,13.90
2019-05-30T02:12:49.616Z,13.90
2019-05-30T02:15:19.468Z,14.00
2019-05-30T02:17:48.937Z,14.00
2019-05-30T02:20:18.542Z,14.10
2019-05-30T02:22:48.068Z,14.10
2019-05-30T02:25:17.569Z,14.00
2019-05-30T02:27:47.014Z,14.00
2019-05-30T02:30:17.390Z,14.00
2019-05-30T02:32:46.842Z,14.00
2019-05-30T02:35:17.198Z,14.10
2019-05-30T02:37:46.639Z,14.10
2019-05-30T02:40:17.440Z,14.00
2019-05-30T02:42:46.868Z,13.90
2019-05-30T02:45:17.542Z,14.00
2019-05-30T02:47:47.013Z,14.00
2019-05-30T02:50:16.821Z,14.10
2019-05-30T02:52:46.256Z,14.10
2019-05-30T02:55:16.438Z,14.00
2019-05-30T02:57:45.898Z,14.00
2019-05-30T03:00:17.928Z,14.00
2019-05-30T03:02:47.272Z,14.10
2019-05-30T03:05:16.865Z,14.00
2019-05-30T03:07:46.371Z,14.10
2019-05-30T03:10:16.021Z,14.10
2019-05-30T03:12:45.480Z,14.10
2019-05-30T03:15:16.034Z,14.00
2019-05-30T03:17:45.641Z,14.00
2019-05-30T03:20:22.766Z,14.10
2019-05-30T03:22:46.707Z,14.10
2019-05-30T03:25:16.626Z,14.10
2019-05-30T03:27:46.032Z,14.10
2019-05-30T03:30:26.796Z,14.20
2019-05-30T03:33:05.738Z,14.20
2019-05-30T03:35:28.545Z,14.20
2019-05-30T03:37:50.050Z,14.20
2019-05-30T03:40:21.286Z,14.20
2019-05-30T03:42:51.034Z,14.20
2019-05-30T03:45:20.627Z,14.20
2019-05-30T03:47:53.624Z,14.20
2019-05-30T03:50:26.308Z,14.30
2019-05-30T03:52:56.402Z,14.30
2019-05-30T03:55:27.600Z,14.30
2019-05-30T03:58:01.787Z,14.30
2019-05-30T04:00:35.935Z,14.40
2019-05-30T04:03:11.684Z,14.40
2019-05-30T04:05:46.138Z,14.50
2019-05-30T04:08:16.403Z,14.40
2019-05-30T04:10:50.210Z,14.40
2019-05-30T04:13:24.357Z,14.40
2019-05-30T04:15:53.818Z,14.40
2019-05-30T04:18:23.319Z,14.40
2019-05-30T04:20:53.597Z,14.40
2019-05-30T04:23:23.072Z,14.40
2019-05-30T04:25:52.521Z,14.40
2019-05-30T04:28:21.999Z,14.40
2019-05-30T04:30:51.459Z,14.50
2019-05-30T04:33:32.334Z,14.50
2019-05-30T04:35:52.558Z,14.50
2019-05-30T04:38:22.028Z,14.60
2019-05-30T04:40:53.154Z,14.60
2019-05-30T04:43:22.615Z,14.60
2019-05-30T04:45:52.046Z,14.60
2019-05-30T04:48:21.614Z,14.60
2019-05-30T04:50:53.394Z,14.60
2019-05-30T04:53:22.840Z,14.60
2019-05-30T04:55:52.341Z,14.60
2019-05-30T04:58:24.368Z,14.60
2019-05-30T05:00:53.317Z,14.70
2019-05-30T05:03:43.435Z,14.70
2019-05-30T05:05:53.964Z,14.70
2019-05-30T05:08:23.402Z,14.70
2019-05-30T05:10:58.152Z,14.70
2019-05-30T05:13:27.615Z,14.70
2019-05-30T05:15:57.071Z,14.80
2019-05-30T05:18:26.538Z,14.70
2019-05-30T05:20:58.812Z,14.70
2019-05-30T05:23:28.278Z,14.70
2019-05-30T05:26:01.261Z,14.70
2019-05-30T05:28:28.980Z,14.80
2019-05-30T05:30:58.442Z,14.80
2019-05-30T05:33:27.890Z,14.90
2019-05-30T05:35:57.349Z,14.80
2019-05-30T05:38:26.810Z,14.80
2019-05-30T05:40:56.248Z,14.80
2019-05-30T05:43:25.697Z,14.90
2019-05-30T05:45:55.161Z,14.90
2019-05-30T05:48:24.811Z,14.90
2019-05-30T05:50:56.967Z,15.00
2019-05-30T05:53:26.431Z,15.10
2019-05-30T05:55:55.878Z,15.10
2019-05-30T05:58:26.444Z,15.00
2019-05-30T06:00:56.169Z,15.10
2019-05-30T06:03:25.609Z,15.10
2019-05-30T06:05:55.707Z,15.20
2019-05-30T06:08:25.858Z,15.30
2019-05-30T06:10:58.082Z,15.40
2019-05-30T06:13:27.490Z,15.50
2019-05-30T06:15:56.931Z,15.50
2019-05-30T06:18:26.405Z,15.60
2019-05-30T06:20:59.437Z,15.50
2019-05-30T06:23:28.912Z,15.60
2019-05-30T06:25:58.349Z,15.60
2019-05-30T06:28:28.231Z,15.70
2019-05-30T06:30:59.140Z,15.90
2019-05-30T06:33:29.205Z,15.90
2019-05-30T06:35:58.652Z,16.00
2019-05-30T06:38:29.400Z,16.00
2019-05-30T06:40:58.967Z,16.00
2019-05-30T06:43:28.397Z,16.00
2019-05-30T06:45:57.919Z,16.10
2019-05-30T06:48:28.696Z,16.20
2019-05-30T06:51:00.984Z,16.10
2019-05-30T06:53:31.389Z,16.00
2019-05-30T06:56:00.952Z,16.10
2019-05-30T06:58:45.839Z,16.30
2019-05-30T07:01:01.609Z,16.30
2019-05-30T07:03:32.561Z,16.20
2019-05-30T07:06:02.706Z,16.20
2019-05-30T07:08:33.073Z,16.30
2019-05-30T07:11:02.642Z,16.30
2019-05-30T07:13:33.620Z,16.40
2019-05-30T07:16:03.172Z,16.50
2019-05-30T07:18:35.383Z,16.60
2019-05-30T07:21:03.822Z,16.80
2019-05-30T07:23:34.039Z,16.90
2019-05-30T07:26:03.848Z,17.00
2019-05-30T07:28:34.169Z,17.00
2019-05-30T07:31:03.788Z,17.20
2019-05-30T07:33:34.460Z,17.10
2019-05-30T07:36:04.145Z,17.30
2019-05-30T07:38:34.728Z,17.70
2019-05-30T07:41:04.252Z,17.80
2019-05-30T07:43:35.095Z,17.80
2019-05-30T07:46:04.773Z,17.80
2019-05-30T07:48:34.384Z,17.70
2019-05-30T07:51:03.895Z,17.80
2019-05-30T07:53:33.374Z,17.80
2019-05-30T07:56:02.811Z,17.90
2019-05-30T07:58:33.336Z,18.10
2019-05-30T08:01:02.933Z,18.20
2019-05-30T08:03:32.652Z,18.30
2019-05-30T08:06:02.121Z,18.50
2019-05-30T08:08:31.860Z,18.50
2019-05-30T08:11:09.332Z,18.70
2019-05-30T08:13:33.169Z,19.10
2019-05-30T08:16:02.735Z,19.60
2019-05-30T08:18:32.199Z,20.00
2019-05-30T08:21:01.703Z,20.30
2019-05-30T08:23:32.051Z,20.70
2019-05-30T08:26:01.587Z,21.10
2019-05-30T08:28:32.163Z,21.30
2019-05-30T08:31:01.720Z,21.60
2019-05-30T08:33:31.448Z,21.80
2019-05-30T08:36:00.939Z,21.70
2019-05-30T08:38:31.020Z,21.70
2019-05-30T08:41:00.530Z,21.60
2019-05-30T08:43:31.216Z,21.80
2019-05-30T08:46:00.724Z,21.40
2019-05-30T08:48:30.173Z,21.10
2019-05-30T08:50:59.671Z,21.00
2019-05-30T08:53:30.188Z,20.90
2019-05-30T08:55:59.723Z,20.90
2019-05-30T08:58:30.322Z,20.90
2019-05-30T09:01:00.018Z,20.80
2019-05-30T09:03:29.467Z,20.80
2019-05-30T09:06:03.693Z,20.90
2019-05-30T09:08:30.093Z,21.30
2019-05-30T09:10:59.609Z,21.70
2019-05-30T09:13:29.036Z,21.90
2019-05-30T09:15:58.543Z,22.00
2019-05-30T09:18:28.225Z,22.30
2019-05-30T09:20:58.289Z,22.50
2019-05-30T09:23:27.723Z,22.70
2019-05-30T09:25:57.266Z,23.10
2019-05-30T09:28:26.688Z,23.40
2019-05-30T09:31:02.097Z,23.50
2019-05-30T09:33:31.545Z,23.50
2019-05-30T09:36:12.736Z,23.50
2019-05-30T09:38:32.245Z,23.00
2019-05-30T09:41:01.706Z,22.70
2019-05-30T09:43:31.138Z,22.50
2019-05-30T09:46:00.605Z,22.50
2019-05-30T09:48:30.490Z,22.50
2019-05-30T09:51:00.117Z,22.20
2019-05-30T09:53:29.572Z,22.30
2019-05-30T09:55:59.056Z,22.10
2019-05-30T09:58:28.480Z,22.20
2019-05-30T10:01:00.264Z,22.10
2019-05-30T10:03:29.757Z,22.40
2019-05-30T10:05:59.205Z,22.60
2019-05-30T10:08:28.656Z,22.50
2019-05-30T10:11:00.599Z,22.20
2019-05-30T10:13:30.113Z,22.00
2019-05-30T10:15:59.606Z,22.10
2019-05-30T10:18:29.063Z,22.00
2019-05-30T10:20:58.534Z,21.90
2019-05-30T10:23:28.071Z,21.90
2019-05-30T10:25:57.658Z,22.00
2019-05-30T10:28:27.130Z,21.90
2019-05-30T10:31:00.825Z,22.20
2019-05-30T10:33:30.275Z,21.90
2019-05-30T10:35:59.898Z,21.70
2019-05-30T10:38:29.429Z,21.90
2019-05-30T10:40:59.725Z,21.80
2019-05-30T10:43:29.321Z,22.10
2019-05-30T10:45:58.762Z,22.60
2019-05-30T10:48:28.323Z,22.20
2019-05-30T10:50:58.337Z,22.20
2019-05-30T10:53:27.945Z,22.00
2019-05-30T10:55:57.413Z,22.00
2019-05-30T10:58:26.891Z,22.00
2019-05-30T11:01:00.677Z,22.10
2019-05-30T11:03:30.190Z,22.00
2019-05-30T11:06:04.372Z,22.30
2019-05-30T11:08:35.562Z,22.60
2019-05-30T11:11:05.065Z,23.00
2019-05-30T11:13:34.525Z,22.80
2019-05-30T11:16:03.967Z,22.90
2019-05-30T11:18:33.405Z,22.90
2019-05-30T11:21:02.910Z,22.90
2019-05-30T11:23:32.321Z,23.20
2019-05-30T11:26:01.785Z,23.00
2019-05-30T11:28:31.917Z,23.20
2019-05-30T11:31:04.397Z,23.00
2019-05-30T11:33:32.559Z,23.00
2019-05-30T11:36:02.020Z,23.00
2019-05-30T11:38:31.539Z,22.90
2019-05-30T11:41:00.955Z,22.70
2019-05-30T11:43:30.588Z,22.70
2019-05-30T11:46:00.086Z,23.00
2019-05-30T11:48:29.531Z,23.10
2019-05-30T11:51:00.060Z,23.40
2019-05-30T11:53:29.720Z,23.40
2019-05-30T11:56:00.358Z,23.30
2019-05-30T11:58:29.902Z,23.00
2019-05-30T12:01:00.608Z,22.80
2019-05-30T12:03:30.133Z,22.70
2019-05-30T12:06:00.724Z,22.90
2019-05-30T12:08:30.312Z,23.00
2019-05-30T12:10:59.769Z,23.40
2019-05-30T12:13:29.238Z,23.60
2019-05-30T12:15:59.650Z,23.70
2019-05-30T12:18:29.199Z,23.70
2019-05-30T12:21:02.010Z,23.20
2019-05-30T12:23:31.742Z,23.30
2019-05-30T12:26:02.288Z,23.20
2019-05-30T12:28:31.833Z,23.30
2019-05-30T12:31:05.088Z,23.00
2019-05-30T12:33:32.430Z,22.90
2019-05-30T12:36:02.677Z,22.80
2019-05-30T12:38:32.217Z,23.00
2019-05-30T12:41:02.916Z,23.10
2019-05-30T12:43:32.430Z,23.20
2019-05-30T12:46:01.888Z,23.20
2019-05-30T12:48:31.412Z,23.20
2019-05-30T12:51:01.459Z,22.90
2019-05-30T12:53:31.022Z,22.80
2019-05-30T12:56:00.639Z,22.70
2019-05-30T12:58:30.079Z,22.80
2019-05-30T13:01:00.787Z,22.70
2019-05-30T13:03:30.408Z,22.70
2019-05-30T13:08:33.799Z,22.80
2019-05-30T13:11:03.807Z,22.20
2019-05-30T13:13:33.407Z,21.90
2019-05-30T13:16:06.945Z,21.70
2019-05-30T13:18:34.013Z,21.90
2019-05-30T13:21:04.213Z,21.90
2019-05-30T13:23:33.697Z,22.00
2019-05-30T13:26:03.844Z,22.10
2019-05-30T13:28:33.412Z,22.00
2019-05-30T13:31:02.859Z,22.00
2019-05-30T13:33:32.322Z,22.00
2019-05-30T13:36:03.016Z,22.00
2019-05-30T13:38:32.608Z,21.90
2019-05-30T13:41:02.040Z,22.00
2019-05-30T13:43:31.491Z,22.20
2019-05-30T13:46:02.780Z,22.30
2019-05-30T13:48:32.152Z,22.30
2019-05-30T13:51:02.693Z,21.90
2019-05-30T13:53:32.499Z,21.80
2019-05-30T13:56:01.968Z,21.80
2019-05-30T13:58:31.430Z,21.80
2019-05-30T14:01:04.884Z,21.80
2019-05-30T14:03:32.062Z,21.80
2019-05-30T14:06:03.015Z,21.70
2019-05-30T14:08:41.108Z,21.60
2019-05-30T14:11:04.652Z,21.50
2019-05-30T14:13:34.376Z,21.50
2019-05-30T14:16:04.840Z,21.60
2019-05-30T14:18:34.377Z,21.60
2019-05-30T14:21:05.112Z,21.60
2019-05-30T14:23:34.667Z,21.60
2019-05-30T14:26:05.240Z,21.50
2019-05-30T14:28:34.865Z,21.30
2019-05-30T14:31:05.026Z,21.30
2019-05-30T14:33:34.589Z,21.30
2019-05-30T14:36:07.475Z,21.40
2019-05-30T14:38:35.183Z,21.30
2019-05-30T14:41:04.860Z,21.40
2019-05-30T14:43:34.411Z,21.40
2019-05-30T14:46:04.352Z,21.50
2019-05-30T14:48:33.961Z,21.40
2019-05-30T14:51:04.516Z,21.50
2019-05-30T14:53:34.039Z,21.40
2019-05-30T14:56:04.899Z,21.40
2019-05-30T14:58:34.551Z,21.30
2019-05-30T15:01:05.068Z,21.30
2019-05-30T15:03:34.683Z,21.40
2019-05-30T15:06:06.901Z,21.50
2019-05-30T15:08:35.375Z,21.60
2019-05-30T15:11:05.426Z,21.60
2019-05-30T15:13:35.032Z,21.60
2019-05-30T15:16:04.769Z,21.60
2019-05-30T15:18:34.209Z,21.60
2019-05-30T15:21:03.666Z,21.50
2019-05-30T15:23:33.380Z,21.40
2019-05-30T15:26:05.942Z,21.40
2019-05-30T15:28:35.552Z,21.50
2019-05-30T15:31:06.517Z,21.50
2019-05-30T15:33:36.216Z,21.50
2019-05-30T15:36:06.559Z,21.60
2019-05-30T15:38:36.004Z,21.50
2019-05-30T15:41:05.449Z,21.50
2019-05-30T15:43:34.896Z,21.60
2019-05-30T15:46:04.398Z,21.50
2019-05-30T15:48:33.863Z,21.50
2019-05-30T15:51:03.329Z,21.50
2019-05-30T15:53:32.813Z,21.60
2019-05-30T15:56:02.272Z,21.60
2019-05-30T15:58:31.729Z,21.50
2019-05-30T16:01:01.160Z,21.50
2019-05-30T16:03:30.620Z,21.40
2019-05-30T16:06:00.079Z,21.40
2019-05-30T16:08:29.514Z,21.60
2019-05-30T16:10:59.006Z,21.70
2019-05-30T16:13:28.444Z,21.90
2019-05-30T16:15:57.891Z,21.90
2019-05-30T16:18:27.343Z,22.00
2019-05-30T16:20:57.404Z,22.00
2019-05-30T16:23:26.866Z,22.00
2019-05-30T16:25:56.347Z,22.00
2019-05-30T16:28:26.079Z,21.90
2019-05-30T16:31:01.330Z,21.90
2019-05-30T16:33:30.783Z,22.00
2019-05-30T16:36:00.240Z,22.10
2019-05-30T16:38:29.723Z,22.00
2019-05-30T16:40:59.744Z,22.00
2019-05-30T16:43:29.211Z,21.90
2019-05-30T16:45:58.660Z,22.10
2019-05-30T16:48:28.136Z,22.10
2019-05-30T16:51:00.585Z,22.10
2019-05-30T16:53:30.048Z,22.10
2019-05-30T16:55:59.503Z,22.00
2019-05-30T16:58:28.978Z,22.00
2019-05-30T17:01:01.183Z,21.90
2019-05-30T17:03:30.616Z,21.80
2019-05-30T17:06:00.060Z,21.90
2019-05-30T17:08:29.494Z,21.80
2019-05-30T17:10:59.563Z,21.80
2019-05-30T17:13:31.185Z,21.70
2019-05-30T17:16:00.183Z,21.70
2019-05-30T17:18:29.627Z,21.50
2019-05-30T17:20:59.101Z,21.30
2019-05-30T17:23:28.563Z,21.20
2019-05-30T17:25:58.036Z,21.10
2019-05-30T17:28:27.492Z,21.10
2019-05-30T17:30:58.498Z,21.00
2019-05-30T17:33:28.269Z,20.90
2019-05-30T17:35:57.669Z,20.90
2019-05-30T17:38:27.153Z,20.80
2019-05-30T17:40:57.406Z,20.80
2019-05-30T17:43:27.179Z,20.80
2019-05-30T17:45:56.604Z,20.80
2019-05-30T17:48:26.098Z,20.70
2019-05-30T17:51:01.636Z,20.60
2019-05-30T17:53:31.106Z,20.50
2019-05-30T17:56:00.547Z,20.50
2019-05-30T17:58:30.194Z,20.50
2019-05-30T18:00:59.903Z,20.40
2019-05-30T18:03:30.546Z,20.30
2019-05-30T18:06:00.042Z,20.20
2019-05-30T18:08:29.515Z,20.10
2019-05-30T18:10:59.410Z,20.20
2019-05-30T18:13:29.215Z,20.30
2019-05-30T18:15:58.788Z,20.30
2019-05-30T18:18:29.298Z,20.30
2019-05-30T18:21:00.542Z,20.30
2019-05-30T18:23:29.992Z,20.30
2019-05-30T18:25:59.455Z,20.20
2019-05-30T18:28:29.881Z,20.30
2019-05-30T18:31:00.046Z,20.10
2019-05-30T18:33:30.300Z,20.00
2019-05-30T18:35:59.858Z,19.90
2019-05-30T18:38:32.698Z,19.80
2019-05-30T18:41:11.258Z,19.80
2019-05-30T18:43:33.413Z,19.70
2019-05-30T18:46:02.859Z,19.50
2019-05-30T18:48:33.434Z,19.50
2019-05-30T18:51:02.943Z,19.50
2019-05-30T18:53:32.595Z,19.50
2019-05-30T18:56:02.062Z,19.50
2019-05-30T18:58:31.538Z,19.40
2019-05-30T19:01:01.007Z,19.40
2019-05-30T19:03:31.015Z,19.30
2019-05-30T19:06:00.970Z,19.30
2019-05-30T19:08:30.405Z,19.10
2019-05-30T19:10:59.873Z,19.20
2019-05-30T19:13:29.333Z,19.20
2019-05-30T19:15:58.776Z,19.20
2019-05-30T19:18:29.417Z,19.20
2019-05-30T19:21:00.216Z,19.20
2019-05-30T19:23:30.041Z,19.10
2019-05-30T19:25:59.541Z,19.00
2019-05-30T19:28:29.006Z,19.00
2019-05-30T19:30:59.338Z,18.80
2019-05-30T19:33:28.946Z,18.80
2019-05-30T19:35:58.421Z,18.80
2019-05-30T19:38:29.345Z,18.80
2019-05-30T19:41:00.522Z,18.80
2019-05-30T19:43:29.986Z,18.90
2019-05-30T19:45:59.430Z,18.90
2019-05-30T19:48:30.183Z,18.70
2019-05-30T19:51:01.087Z,18.70
2019-05-30T19:53:30.853Z,18.70
2019-05-30T19:56:00.350Z,18.60
2019-05-30T19:58:29.800Z,18.70
2019-05-30T20:00:59.384Z,18.70
2019-05-30T20:03:38.477Z,18.70
2019-05-30T20:06:00.329Z,18.70
2019-05-30T20:08:44.710Z,18.60
2019-05-30T20:11:00.994Z,18.60
2019-05-30T20:13:31.052Z,18.50
2019-05-30T20:16:00.676Z,18.60
2019-05-30T20:18:31.440Z,18.60
2019-05-30T20:21:00.961Z,18.60
2019-05-30T20:23:30.435Z,18.50
2019-05-30T20:25:59.891Z,18.40
2019-05-30T20:28:29.349Z,18.50
2019-05-30T20:31:00.530Z,18.50
2019-05-30T20:33:29.972Z,18.50
2019-05-30T20:35:59.449Z,18.50
2019-05-30T20:38:28.892Z,18.50
2019-05-30T20:41:00.625Z,18.30
2019-05-30T20:43:33.020Z,18.30
2019-05-30T20:46:01.291Z,18.20
2019-05-30T20:48:30.750Z,18.20
2019-05-30T20:51:00.188Z,18.20
2019-05-30T20:53:29.627Z,18.10
2019-05-30T20:55:59.070Z,18.20
2019-05-30T20:58:28.643Z,18.20
2019-05-30T21:00:58.093Z,18.20
2019-05-30T21:03:27.531Z,18.10
2019-05-30T21:05:58.645Z,18.10
2019-05-30T21:08:28.163Z,18.20
2019-05-30T21:11:00.809Z,18.10
2019-05-30T21:13:36.094Z,18.00
2019-05-30T21:16:05.732Z,18.00
2019-05-30T21:18:37.742Z,18.00
2019-05-30T21:21:07.329Z,18.00
2019-05-30T21:23:36.784Z,17.90
2019-05-30T21:26:06.234Z,17.80
2019-05-30T21:28:36.642Z,17.80
2019-05-30T21:31:06.223Z,17.80
2019-05-30T21:33:35.976Z,17.80
2019-05-30T21:36:06.713Z,17.70
2019-05-30T21:38:36.163Z,17.70
2019-05-30T21:41:05.628Z,17.70
2019-05-30T21:43:35.092Z,17.70
2019-05-30T21:46:04.708Z,17.70
2019-05-30T21:48:34.172Z,17.70
2019-05-30T21:51:03.645Z,17.70
2019-05-30T21:53:33.108Z,17.70
2019-05-30T21:56:02.570Z,17.70
2019-05-30T21:58:32.175Z,17.70
2019-05-30T22:01:06.394Z,17.70
2019-05-30T22:03:35.854Z,17.60
2019-05-30T22:06:05.871Z,17.60
2019-05-30T22:08:35.344Z,17.60
2019-05-30T22:11:05.144Z,17.60
2019-05-30T22:13:34.630Z,17.60
2019-05-30T22:18:37.919Z,17.60
2019-05-30T22:21:10.294Z,17.60
2019-05-30T22:23:39.766Z,17.40
2019-05-30T22:26:09.315Z,17.50
2019-05-30T22:28:38.775Z,17.40
2019-05-30T22:31:08.219Z,17.40
2019-05-30T22:33:37.655Z,17.40
2019-05-30T22:36:07.127Z,17.40
2019-05-30T22:38:36.567Z,17.40
2019-05-30T22:41:06.046Z,17.30
2019-05-30T22:43:35.490Z,17.40
2019-05-30T22:46:05.322Z,17.30
2019-05-30T22:48:34.761Z,17.30
2019-05-30T22:51:04.271Z,17.30
2019-05-30T22:53:33.726Z,17.20
2019-05-30T22:56:03.256Z,17.20
2019-05-30T22:58:32.736Z,17.20
2019-05-30T23:01:02.177Z,17.10
2019-05-30T23:03:31.656Z,17.10
2019-05-30T23:06:01.122Z,17.00
2019-05-30T23:08:30.573Z,16.90
2019-05-30T23:11:00.034Z,16.90
2019-05-30T23:13:40.196Z,16.90
2019-05-30T23:16:00.692Z,16.90
2019-05-30T23:18:30.153Z,16.90
2019-05-30T23:20:59.605Z,16.80
2019-05-30T23:23:29.077Z,16.80
2019-05-30T23:25:58.535Z,16.70
2019-05-30T23:28:27.997Z,16.70
2019-05-30T23:30:58.326Z,16.70
2019-05-30T23:33:27.777Z,16.70
2019-05-30T23:35:57.212Z,16.70
2019-05-30T23:38:26.688Z,16.70
2019-05-30T23:40:59.212Z,16.60
2019-05-30T23:43:28.757Z,16.50
2019-05-30T23:45:59.561Z,16.60
2019-05-30T23:48:29.159Z,16.60
2019-05-30T23:51:01.314Z,16.60
2019-05-30T23:53:30.768Z,16.60
2019-05-30T23:56:00.614Z,16.60
2019-05-30T23:58:30.157Z,16.60
